sensor_id;sensor_type;location;lat;lon;timestamp;P1;durP1;ratioP1;P2;durP2;ratioP2
31537;SDS011;18147;51.952;6.146;2022-08-03T00:01:15;8.60;;;4.85;;
31537;SDS011;18147;51.952;6.146;2022-08-03T00:03:41;10.60;;;4.75;;
31537;SDS011;18147;51.952;6.146;2022-08-03T00:06:06;11.35;;;4.07;;
31537;SDS011;18147;51.952;6.146;2022-08-03T00:08:32;6.25;;;3.90;;
31537;SDS011;18147;51.952;6.146;2022-08-03T00:10:57;9.52;;;4.00;;
31537;SDS011;18147;51.952;6.146;2022-08-03T00:13:23;11.75;;;4.18;;
31537;SDS011;18147;51.952;6.146;2022-08-03T00:15:49;12.20;;;4.72;;
31537;SDS011;18147;51.952;6.146;2022-08-03T00:18:14;13.75;;;4.25;;
31537;SDS011;18147;51.952;6.146;2022-08-03T00:20:40;8.82;;;4.05;;
31537;SDS011;18147;51.952;6.146;2022-08-03T00:23:06;13.80;;;4.43;;
31537;SDS011;18147;51.952;6.146;2022-08-03T00:25:32;9.00;;;4.05;;
31537;SDS011;18147;51.952;6.146;2022-08-03T00:27:58;8.57;;;3.95;;
31537;SDS011;18147;51.952;6.146;2022-08-03T00:30:24;13.68;;;4.70;;
31537;SDS011;18147;51.952;6.146;2022-08-03T00:32:49;10.57;;;4.15;;
31537;SDS011;18147;51.952;6.146;2022-08-03T00:35:15;11.40;;;4.05;;
31537;SDS011;18147;51.952;6.146;2022-08-03T00:37:40;7.10;;;3.63;;
31537;SDS011;18147;51.952;6.146;2022-08-03T00:40:06;11.32;;;3.47;;
31537;SDS011;18147;51.952;6.146;2022-08-03T00:42:32;8.38;;;3.42;;
31537;SDS011;18147;51.952;6.146;2022-08-03T00:44:57;11.23;;;4.35;;
31537;SDS011;18147;51.952;6.146;2022-08-03T00:47:23;6.93;;;3.42;;
31537;SDS011;18147;51.952;6.146;2022-08-03T00:49:48;7.68;;;3.45;;
31537;SDS011;18147;51.952;6.146;2022-08-03T00:52:14;6.57;;;3.58;;
31537;SDS011;18147;51.952;6.146;2022-08-03T00:54:41;10.82;;;3.40;;
31537;SDS011;18147;51.952;6.146;2022-08-03T00:57:06;8.82;;;4.30;;
31537;SDS011;18147;51.952;6.146;2022-08-03T00:59:32;8.13;;;3.47;;
31537;SDS011;18147;51.952;6.146;2022-08-03T01:01:58;11.00;;;3.35;;
31537;SDS011;18147;51.952;6.146;2022-08-03T01:04:24;8.02;;;3.83;;
31537;SDS011;18147;51.952;6.146;2022-08-03T01:09:45;15.55;;;4.43;;
31537;SDS011;18147;51.952;6.146;2022-08-03T01:12:34;10.65;;;4.65;;
31537;SDS011;18147;51.952;6.146;2022-08-03T01:20:31;11.13;;;4.75;;
31537;SDS011;18147;51.952;6.146;2022-08-03T01:23:02;10.15;;;4.30;;
31537;SDS011;18147;51.952;6.146;2022-08-03T01:31:08;10.55;;;4.93;;
31537;SDS011;18147;51.952;6.146;2022-08-03T01:33:36;9.57;;;5.00;;
31537;SDS011;18147;51.952;6.146;2022-08-03T01:36:06;14.88;;;5.35;;
31537;SDS011;18147;51.952;6.146;2022-08-03T01:38:38;10.02;;;4.80;;
31537;SDS011;18147;51.952;6.146;2022-08-03T01:41:08;9.73;;;4.28;;
31537;SDS011;18147;51.952;6.146;2022-08-03T01:43:36;13.52;;;5.18;;
31537;SDS011;18147;51.952;6.146;2022-08-03T01:46:05;13.15;;;4.93;;
31537;SDS011;18147;51.952;6.146;2022-08-03T01:48:32;10.45;;;5.05;;
31537;SDS011;18147;51.952;6.146;2022-08-03T01:51:00;10.75;;;5.22;;
31537;SDS011;18147;51.952;6.146;2022-08-03T01:53:26;10.68;;;5.03;;
31537;SDS011;18147;51.952;6.146;2022-08-03T01:55:53;9.48;;;4.32;;
31537;SDS011;18147;51.952;6.146;2022-08-03T01:58:20;13.55;;;5.65;;
31537;SDS011;18147;51.952;6.146;2022-08-03T02:00:48;16.42;;;5.25;;
31537;SDS011;18147;51.952;6.146;2022-08-03T02:03:15;12.38;;;4.57;;
31537;SDS011;18147;51.952;6.146;2022-08-03T02:05:42;11.40;;;4.95;;
31537;SDS011;18147;51.952;6.146;2022-08-03T02:08:09;12.95;;;4.32;;
31537;SDS011;18147;51.952;6.146;2022-08-03T02:10:37;7.13;;;4.63;;
31537;SDS011;18147;51.952;6.146;2022-08-03T02:13:06;12.50;;;4.30;;
31537;SDS011;18147;51.952;6.146;2022-08-03T02:15:34;15.45;;;5.07;;
31537;SDS011;18147;51.952;6.146;2022-08-03T02:18:01;11.38;;;5.03;;
31537;SDS011;18147;51.952;6.146;2022-08-03T02:20:30;12.77;;;5.07;;
31537;SDS011;18147;51.952;6.146;2022-08-03T02:22:57;9.63;;;4.97;;
31537;SDS011;18147;51.952;6.146;2022-08-03T02:25:23;12.45;;;5.30;;
31537;SDS011;18147;51.952;6.146;2022-08-03T02:27:50;10.00;;;4.95;;
31537;SDS011;18147;51.952;6.146;2022-08-03T02:30:19;18.67;;;5.55;;
31537;SDS011;18147;51.952;6.146;2022-08-03T02:32:47;10.75;;;5.13;;
31537;SDS011;18147;51.952;6.146;2022-08-03T02:35:19;15.40;;;5.47;;
31537;SDS011;18147;51.952;6.146;2022-08-03T02:37:49;13.73;;;4.68;;
31537;SDS011;18147;51.952;6.146;2022-08-03T02:40:18;14.55;;;5.25;;
31537;SDS011;18147;51.952;6.146;2022-08-03T02:42:45;12.75;;;4.90;;
31537;SDS011;18147;51.952;6.146;2022-08-03T02:45:13;14.27;;;5.35;;
31537;SDS011;18147;51.952;6.146;2022-08-03T02:47:42;15.52;;;5.28;;
31537;SDS011;18147;51.952;6.146;2022-08-03T02:50:10;15.10;;;5.20;;
31537;SDS011;18147;51.952;6.146;2022-08-03T02:52:37;13.10;;;5.32;;
31537;SDS011;18147;51.952;6.146;2022-08-03T02:55:04;15.13;;;6.18;;
31537;SDS011;18147;51.952;6.146;2022-08-03T02:57:32;12.45;;;6.20;;
31537;SDS011;18147;51.952;6.146;2022-08-03T03:00:00;13.60;;;5.72;;
31537;SDS011;18147;51.952;6.146;2022-08-03T03:02:26;10.85;;;6.13;;
31537;SDS011;18147;51.952;6.146;2022-08-03T03:04:52;9.52;;;5.53;;
31537;SDS011;18147;51.952;6.146;2022-08-03T03:07:20;11.73;;;5.93;;
31537;SDS011;18147;51.952;6.146;2022-08-03T03:09:46;14.00;;;5.13;;
31537;SDS011;18147;51.952;6.146;2022-08-03T03:12:13;15.45;;;5.60;;
31537;SDS011;18147;51.952;6.146;2022-08-03T03:14:39;16.73;;;6.13;;
31537;SDS011;18147;51.952;6.146;2022-08-03T03:17:08;13.63;;;5.18;;
31537;SDS011;18147;51.952;6.146;2022-08-03T03:19:35;14.07;;;5.88;;
31537;SDS011;18147;51.952;6.146;2022-08-03T03:22:03;13.52;;;5.55;;
31537;SDS011;18147;51.952;6.146;2022-08-03T03:24:31;14.93;;;5.45;;
31537;SDS011;18147;51.952;6.146;2022-08-03T03:26:58;14.48;;;4.82;;
31537;SDS011;18147;51.952;6.146;2022-08-03T03:29:25;14.98;;;4.28;;
31537;SDS011;18147;51.952;6.146;2022-08-03T03:31:51;11.88;;;4.78;;
31537;SDS011;18147;51.952;6.146;2022-08-03T03:34:17;14.98;;;5.47;;
31537;SDS011;18147;51.952;6.146;2022-08-03T03:36:43;11.63;;;4.85;;
31537;SDS011;18147;51.952;6.146;2022-08-03T03:39:08;13.75;;;5.55;;
31537;SDS011;18147;51.952;6.146;2022-08-03T03:41:35;13.10;;;5.22;;
31537;SDS011;18147;51.952;6.146;2022-08-03T03:44:00;11.68;;;5.43;;
31537;SDS011;18147;51.952;6.146;2022-08-03T03:46:26;11.80;;;4.72;;
31537;SDS011;18147;51.952;6.146;2022-08-03T03:48:52;9.65;;;4.75;;
31537;SDS011;18147;51.952;6.146;2022-08-03T03:51:17;21.20;;;5.43;;
31537;SDS011;18147;51.952;6.146;2022-08-03T03:53:56;14.70;;;5.15;;
31537;SDS011;18147;51.952;6.146;2022-08-03T03:56:22;10.10;;;4.72;;
31537;SDS011;18147;51.952;6.146;2022-08-03T03:58:48;10.15;;;4.70;;
31537;SDS011;18147;51.952;6.146;2022-08-03T04:01:14;12.65;;;4.55;;
31537;SDS011;18147;51.952;6.146;2022-08-03T04:03:39;12.38;;;4.82;;
31537;SDS011;18147;51.952;6.146;2022-08-03T04:06:05;12.50;;;4.60;;
31537;SDS011;18147;51.952;6.146;2022-08-03T04:08:49;11.18;;;4.07;;
31537;SDS011;18147;51.952;6.146;2022-08-03T04:11:53;12.63;;;4.63;;
31537;SDS011;18147;51.952;6.146;2022-08-03T04:14:28;9.45;;;4.00;;
31537;SDS011;18147;51.952;6.146;2022-08-03T04:16:58;10.18;;;5.32;;
31537;SDS011;18147;51.952;6.146;2022-08-03T04:22:10;16.38;;;5.88;;
31537;SDS011;18147;51.952;6.146;2022-08-03T04:24:42;8.95;;;4.72;;
31537;SDS011;18147;51.952;6.146;2022-08-03T04:27:11;18.95;;;5.43;;
31537;SDS011;18147;51.952;6.146;2022-08-03T04:29:40;12.25;;;5.82;;
31537;SDS011;18147;51.952;6.146;2022-08-03T04:32:10;14.38;;;6.82;;
31537;SDS011;18147;51.952;6.146;2022-08-03T04:34:36;16.10;;;6.80;;
31537;SDS011;18147;51.952;6.146;2022-08-03T04:37:04;18.35;;;7.72;;
31537;SDS011;18147;51.952;6.146;2022-08-03T04:39:37;20.23;;;6.88;;
31537;SDS011;18147;51.952;6.146;2022-08-03T04:42:04;14.30;;;7.32;;
31537;SDS011;18147;51.952;6.146;2022-08-03T04:44:34;17.90;;;7.85;;
31537;SDS011;18147;51.952;6.146;2022-08-03T04:47:01;20.17;;;7.50;;
31537;SDS011;18147;51.952;6.146;2022-08-03T04:49:27;17.20;;;8.82;;
31537;SDS011;18147;51.952;6.146;2022-08-03T04:51:54;22.67;;;10.20;;
31537;SDS011;18147;51.952;6.146;2022-08-03T04:54:20;17.05;;;9.73;;
31537;SDS011;18147;51.952;6.146;2022-08-03T04:56:46;18.77;;;9.48;;
31537;SDS011;18147;51.952;6.146;2022-08-03T04:59:11;24.40;;;8.85;;
31537;SDS011;18147;51.952;6.146;2022-08-03T05:01:38;16.88;;;7.88;;
31537;SDS011;18147;51.952;6.146;2022-08-03T05:04:04;15.90;;;7.68;;
31537;SDS011;18147;51.952;6.146;2022-08-03T05:06:30;19.50;;;7.85;;
31537;SDS011;18147;51.952;6.146;2022-08-03T05:08:55;16.83;;;7.10;;
31537;SDS011;18147;51.952;6.146;2022-08-03T05:11:21;21.55;;;8.05;;
31537;SDS011;18147;51.952;6.146;2022-08-03T05:13:46;18.65;;;8.68;;
31537;SDS011;18147;51.952;6.146;2022-08-03T05:16:12;15.57;;;7.95;;
31537;SDS011;18147;51.952;6.146;2022-08-03T05:18:38;18.67;;;8.02;;
31537;SDS011;18147;51.952;6.146;2022-08-03T05:21:05;22.33;;;8.80;;
31537;SDS011;18147;51.952;6.146;2022-08-03T05:23:30;22.92;;;8.13;;
31537;SDS011;18147;51.952;6.146;2022-08-03T05:25:56;16.55;;;7.85;;
31537;SDS011;18147;51.952;6.146;2022-08-03T05:28:21;15.80;;;8.18;;
31537;SDS011;18147;51.952;6.146;2022-08-03T05:30:47;21.88;;;11.25;;
31537;SDS011;18147;51.952;6.146;2022-08-03T05:33:12;18.70;;;8.02;;
31537;SDS011;18147;51.952;6.146;2022-08-03T05:35:38;19.25;;;8.15;;
31537;SDS011;18147;51.952;6.146;2022-08-03T05:38:04;20.13;;;9.35;;
31537;SDS011;18147;51.952;6.146;2022-08-03T05:40:30;19.90;;;7.68;;
31537;SDS011;18147;51.952;6.146;2022-08-03T05:42:56;19.00;;;8.60;;
31537;SDS011;18147;51.952;6.146;2022-08-03T05:45:22;16.90;;;7.47;;
31537;SDS011;18147;51.952;6.146;2022-08-03T05:47:48;13.73;;;7.68;;
31537;SDS011;18147;51.952;6.146;2022-08-03T05:50:15;13.43;;;6.90;;
31537;SDS011;18147;51.952;6.146;2022-08-03T05:52:41;20.27;;;7.35;;
31537;SDS011;18147;51.952;6.146;2022-08-03T05:55:07;14.57;;;6.75;;
31537;SDS011;18147;51.952;6.146;2022-08-03T05:57:33;12.13;;;6.93;;
31537;SDS011;18147;51.952;6.146;2022-08-03T05:59:59;13.35;;;6.57;;
31537;SDS011;18147;51.952;6.146;2022-08-03T06:02:36;13.95;;;7.03;;
31537;SDS011;18147;51.952;6.146;2022-08-03T06:05:02;15.50;;;6.35;;
31537;SDS011;18147;51.952;6.146;2022-08-03T06:07:28;12.48;;;5.70;;
31537;SDS011;18147;51.952;6.146;2022-08-03T06:09:53;18.50;;;6.47;;
31537;SDS011;18147;51.952;6.146;2022-08-03T06:12:19;14.30;;;6.10;;
31537;SDS011;18147;51.952;6.146;2022-08-03T06:14:44;18.63;;;5.50;;
31537;SDS011;18147;51.952;6.146;2022-08-03T06:17:10;14.70;;;5.82;;
31537;SDS011;18147;51.952;6.146;2022-08-03T06:19:35;19.23;;;6.05;;
31537;SDS011;18147;51.952;6.146;2022-08-03T06:22:01;16.77;;;6.70;;
31537;SDS011;18147;51.952;6.146;2022-08-03T06:24:26;13.93;;;6.07;;
31537;SDS011;18147;51.952;6.146;2022-08-03T06:26:52;13.73;;;5.20;;
31537;SDS011;18147;51.952;6.146;2022-08-03T06:29:17;15.75;;;5.78;;
31537;SDS011;18147;51.952;6.146;2022-08-03T06:31:43;11.73;;;5.03;;
31537;SDS011;18147;51.952;6.146;2022-08-03T06:34:08;18.10;;;5.85;;
31537;SDS011;18147;51.952;6.146;2022-08-03T06:36:34;9.00;;;4.47;;
31537;SDS011;18147;51.952;6.146;2022-08-03T06:39:00;19.60;;;5.93;;
31537;SDS011;18147;51.952;6.146;2022-08-03T06:41:27;11.27;;;4.45;;
31537;SDS011;18147;51.952;6.146;2022-08-03T06:43:52;13.35;;;4.57;;
31537;SDS011;18147;51.952;6.146;2022-08-03T06:46:18;11.05;;;4.70;;
31537;SDS011;18147;51.952;6.146;2022-08-03T06:48:44;13.43;;;4.72;;
31537;SDS011;18147;51.952;6.146;2022-08-03T06:51:09;15.35;;;3.90;;
31537;SDS011;18147;51.952;6.146;2022-08-03T06:53:35;11.38;;;3.13;;
31537;SDS011;18147;51.952;6.146;2022-08-03T06:56:01;10.68;;;3.33;;
31537;SDS011;18147;51.952;6.146;2022-08-03T06:58:28;8.38;;;2.88;;
31537;SDS011;18147;51.952;6.146;2022-08-03T07:00:54;14.40;;;3.42;;
31537;SDS011;18147;51.952;6.146;2022-08-03T07:03:19;10.52;;;2.83;;
31537;SDS011;18147;51.952;6.146;2022-08-03T07:05:45;10.93;;;2.97;;
31537;SDS011;18147;51.952;6.146;2022-08-03T07:08:11;14.45;;;3.63;;
31537;SDS011;18147;51.952;6.146;2022-08-03T07:10:37;13.93;;;2.88;;
31537;SDS011;18147;51.952;6.146;2022-08-03T07:13:03;14.55;;;2.95;;
31537;SDS011;18147;51.952;6.146;2022-08-03T07:15:29;12.10;;;3.22;;
31537;SDS011;18147;51.952;6.146;2022-08-03T07:17:55;14.50;;;2.90;;
31537;SDS011;18147;51.952;6.146;2022-08-03T07:20:20;18.75;;;2.90;;
31537;SDS011;18147;51.952;6.146;2022-08-03T07:22:46;10.65;;;2.97;;
31537;SDS011;18147;51.952;6.146;2022-08-03T07:25:12;13.60;;;3.35;;
31537;SDS011;18147;51.952;6.146;2022-08-03T07:27:37;19.27;;;3.22;;
31537;SDS011;18147;51.952;6.146;2022-08-03T07:30:06;13.98;;;3.10;;
31537;SDS011;18147;51.952;6.146;2022-08-03T07:32:32;13.55;;;3.83;;
31537;SDS011;18147;51.952;6.146;2022-08-03T07:34:57;12.07;;;2.53;;
31537;SDS011;18147;51.952;6.146;2022-08-03T07:37:23;24.55;;;3.33;;
31537;SDS011;18147;51.952;6.146;2022-08-03T07:39:48;18.45;;;3.70;;
31537;SDS011;18147;51.952;6.146;2022-08-03T07:42:14;13.77;;;3.90;;
31537;SDS011;18147;51.952;6.146;2022-08-03T07:44:39;11.05;;;2.67;;
31537;SDS011;18147;51.952;6.146;2022-08-03T07:47:05;14.40;;;2.78;;
31537;SDS011;18147;51.952;6.146;2022-08-03T07:49:30;13.80;;;2.50;;
31537;SDS011;18147;51.952;6.146;2022-08-03T07:51:56;10.23;;;2.75;;
31537;SDS011;18147;51.952;6.146;2022-08-03T07:54:40;15.20;;;2.78;;
31537;SDS011;18147;51.952;6.146;2022-08-03T07:57:05;12.30;;;3.00;;
31537;SDS011;18147;51.952;6.146;2022-08-03T07:59:31;15.18;;;2.28;;
31537;SDS011;18147;51.952;6.146;2022-08-03T08:01:56;19.65;;;3.08;;
31537;SDS011;18147;51.952;6.146;2022-08-03T08:04:22;14.75;;;3.63;;
31537;SDS011;18147;51.952;6.146;2022-08-03T08:06:47;11.82;;;3.15;;
31537;SDS011;18147;51.952;6.146;2022-08-03T08:09:13;10.70;;;2.70;;
31537;SDS011;18147;51.952;6.146;2022-08-03T08:11:39;15.82;;;2.90;;
31537;SDS011;18147;51.952;6.146;2022-08-03T08:14:04;18.48;;;3.55;;
31537;SDS011;18147;51.952;6.146;2022-08-03T08:16:31;13.82;;;2.85;;
31537;SDS011;18147;51.952;6.146;2022-08-03T08:18:56;20.58;;;3.92;;
31537;SDS011;18147;51.952;6.146;2022-08-03T08:21:22;15.02;;;3.30;;
31537;SDS011;18147;51.952;6.146;2022-08-03T08:23:48;14.27;;;3.08;;
31537;SDS011;18147;51.952;6.146;2022-08-03T08:26:13;13.98;;;3.80;;
31537;SDS011;18147;51.952;6.146;2022-08-03T08:28:39;17.45;;;3.22;;
31537;SDS011;18147;51.952;6.146;2022-08-03T08:31:04;21.05;;;4.15;;
31537;SDS011;18147;51.952;6.146;2022-08-03T08:33:30;13.57;;;3.28;;
31537;SDS011;18147;51.952;6.146;2022-08-03T08:35:58;14.38;;;2.80;;
31537;SDS011;18147;51.952;6.146;2022-08-03T08:38:24;16.17;;;2.58;;
31537;SDS011;18147;51.952;6.146;2022-08-03T08:40:50;12.45;;;3.13;;
31537;SDS011;18147;51.952;6.146;2022-08-03T08:43:15;16.17;;;2.83;;
31537;SDS011;18147;51.952;6.146;2022-08-03T08:45:41;13.48;;;2.47;;
31537;SDS011;18147;51.952;6.146;2022-08-03T08:48:06;14.65;;;2.72;;
31537;SDS011;18147;51.952;6.146;2022-08-03T08:50:34;12.10;;;2.50;;
31537;SDS011;18147;51.952;6.146;2022-08-03T08:53:02;19.42;;;3.08;;
31537;SDS011;18147;51.952;6.146;2022-08-03T08:55:28;19.45;;;3.40;;
31537;SDS011;18147;51.952;6.146;2022-08-03T08:57:58;17.33;;;3.22;;
31537;SDS011;18147;51.952;6.146;2022-08-03T09:00:29;16.15;;;3.10;;
31537;SDS011;18147;51.952;6.146;2022-08-03T09:02:55;10.18;;;2.40;;
31537;SDS011;18147;51.952;6.146;2022-08-03T09:05:20;10.98;;;2.50;;
31537;SDS011;18147;51.952;6.146;2022-08-03T09:07:46;16.75;;;3.20;;
31537;SDS011;18147;51.952;6.146;2022-08-03T09:10:13;18.38;;;3.22;;
31537;SDS011;18147;51.952;6.146;2022-08-03T09:12:45;13.32;;;2.65;;
31537;SDS011;18147;51.952;6.146;2022-08-03T09:15:20;11.15;;;2.58;;
31537;SDS011;18147;51.952;6.146;2022-08-03T09:17:56;11.07;;;2.33;;
31537;SDS011;18147;51.952;6.146;2022-08-03T09:20:23;15.50;;;2.70;;
31537;SDS011;18147;51.952;6.146;2022-08-03T09:22:56;20.92;;;4.15;;
31537;SDS011;18147;51.952;6.146;2022-08-03T09:25:41;18.52;;;2.97;;
31537;SDS011;18147;51.952;6.146;2022-08-03T09:28:11;21.20;;;3.25;;
31537;SDS011;18147;51.952;6.146;2022-08-03T09:30:42;16.00;;;3.53;;
31537;SDS011;18147;51.952;6.146;2022-08-03T09:33:10;13.35;;;2.83;;
31537;SDS011;18147;51.952;6.146;2022-08-03T09:35:47;12.77;;;2.40;;
31537;SDS011;18147;51.952;6.146;2022-08-03T09:38:22;10.63;;;2.00;;
31537;SDS011;18147;51.952;6.146;2022-08-03T09:40:51;21.77;;;3.35;;
31537;SDS011;18147;51.952;6.146;2022-08-03T09:43:18;15.43;;;2.70;;
31537;SDS011;18147;51.952;6.146;2022-08-03T09:45:44;14.70;;;2.95;;
31537;SDS011;18147;51.952;6.146;2022-08-03T09:48:25;13.73;;;3.13;;
31537;SDS011;18147;51.952;6.146;2022-08-03T09:50:57;15.07;;;2.72;;
31537;SDS011;18147;51.952;6.146;2022-08-03T09:53:24;15.93;;;2.47;;
31537;SDS011;18147;51.952;6.146;2022-08-03T09:58:20;15.10;;;2.72;;
31537;SDS011;18147;51.952;6.146;2022-08-03T10:01:05;17.10;;;2.22;;
31537;SDS011;18147;51.952;6.146;2022-08-03T10:03:33;13.15;;;3.10;;
31537;SDS011;18147;51.952;6.146;2022-08-03T10:06:14;13.50;;;2.58;;
31537;SDS011;18147;51.952;6.146;2022-08-03T10:08:40;11.15;;;3.00;;
31537;SDS011;18147;51.952;6.146;2022-08-03T10:11:06;19.70;;;3.13;;
31537;SDS011;18147;51.952;6.146;2022-08-03T10:13:32;14.57;;;3.42;;
31537;SDS011;18147;51.952;6.146;2022-08-03T10:15:58;12.20;;;2.33;;
31537;SDS011;18147;51.952;6.146;2022-08-03T10:18:23;12.65;;;2.35;;
31537;SDS011;18147;51.952;6.146;2022-08-03T10:20:51;10.88;;;2.10;;
31537;SDS011;18147;51.952;6.146;2022-08-03T10:23:18;9.77;;;2.55;;
31537;SDS011;18147;51.952;6.146;2022-08-03T10:25:46;13.07;;;3.42;;
31537;SDS011;18147;51.952;6.146;2022-08-03T10:28:14;13.48;;;2.10;;
31537;SDS011;18147;51.952;6.146;2022-08-03T10:30:43;17.33;;;2.92;;
31537;SDS011;18147;51.952;6.146;2022-08-03T10:33:23;13.07;;;2.83;;
31537;SDS011;18147;51.952;6.146;2022-08-03T10:35:54;15.52;;;2.58;;
31537;SDS011;18147;51.952;6.146;2022-08-03T10:38:22;15.10;;;2.63;;
31537;SDS011;18147;51.952;6.146;2022-08-03T10:40:53;16.98;;;3.45;;
31537;SDS011;18147;51.952;6.146;2022-08-03T10:43:21;15.40;;;3.30;;
31537;SDS011;18147;51.952;6.146;2022-08-03T10:48:17;13.10;;;2.67;;
31537;SDS011;18147;51.952;6.146;2022-08-03T10:50:44;17.08;;;3.55;;
31537;SDS011;18147;51.952;6.146;2022-08-03T10:53:10;17.58;;;2.53;;
31537;SDS011;18147;51.952;6.146;2022-08-03T10:55:36;15.70;;;3.40;;
31537;SDS011;18147;51.952;6.146;2022-08-03T11:04:14;14.20;;;2.40;;
31537;SDS011;18147;51.952;6.146;2022-08-03T11:06:41;14.18;;;2.80;;
31537;SDS011;18147;51.952;6.146;2022-08-03T11:11:37;14.25;;;3.67;;
31537;SDS011;18147;51.952;6.146;2022-08-03T11:16:46;18.50;;;2.42;;
31537;SDS011;18147;51.952;6.146;2022-08-03T11:19:48;13.60;;;2.58;;
31537;SDS011;18147;51.952;6.146;2022-08-03T11:22:15;14.38;;;3.10;;
31537;SDS011;18147;51.952;6.146;2022-08-03T11:35:56;19.55;;;2.85;;
31537;SDS011;18147;51.952;6.146;2022-08-03T11:43:06;23.67;;;3.53;;
31537;SDS011;18147;51.952;6.146;2022-08-03T11:45:34;15.20;;;3.70;;
31537;SDS011;18147;51.952;6.146;2022-08-03T11:48:02;20.45;;;3.35;;
31537;SDS011;18147;51.952;6.146;2022-08-03T11:50:38;22.50;;;3.42;;
31537;SDS011;18147;51.952;6.146;2022-08-03T11:53:04;20.75;;;3.53;;
31537;SDS011;18147;51.952;6.146;2022-08-03T11:55:31;19.95;;;3.58;;
31537;SDS011;18147;51.952;6.146;2022-08-03T11:57:59;19.77;;;4.03;;
31537;SDS011;18147;51.952;6.146;2022-08-03T12:00:29;22.25;;;3.05;;
31537;SDS011;18147;51.952;6.146;2022-08-03T12:03:00;18.05;;;3.17;;
31537;SDS011;18147;51.952;6.146;2022-08-03T12:05:32;24.25;;;4.00;;
31537;SDS011;18147;51.952;6.146;2022-08-03T12:07:58;16.75;;;3.40;;
31537;SDS011;18147;51.952;6.146;2022-08-03T12:10:24;29.17;;;4.18;;
31537;SDS011;18147;51.952;6.146;2022-08-03T12:12:56;24.73;;;4.55;;
31537;SDS011;18147;51.952;6.146;2022-08-03T12:15:26;27.40;;;4.25;;
31537;SDS011;18147;51.952;6.146;2022-08-03T12:17:53;18.35;;;3.53;;
31537;SDS011;18147;51.952;6.146;2022-08-03T12:20:21;18.55;;;3.60;;
31537;SDS011;18147;51.952;6.146;2022-08-03T12:22:49;19.98;;;4.38;;
31537;SDS011;18147;51.952;6.146;2022-08-03T12:25:24;19.65;;;3.40;;
31537;SDS011;18147;51.952;6.146;2022-08-03T12:27:51;14.73;;;3.20;;
31537;SDS011;18147;51.952;6.146;2022-08-03T12:30:18;20.00;;;3.25;;
31537;SDS011;18147;51.952;6.146;2022-08-03T12:32:44;20.00;;;3.88;;
31537;SDS011;18147;51.952;6.146;2022-08-03T12:35:10;13.20;;;3.33;;
31537;SDS011;18147;51.952;6.146;2022-08-03T12:37:48;14.20;;;3.03;;
31537;SDS011;18147;51.952;6.146;2022-08-03T12:40:14;11.98;;;3.03;;
31537;SDS011;18147;51.952;6.146;2022-08-03T12:42:48;11.90;;;2.35;;
31537;SDS011;18147;51.952;6.146;2022-08-03T12:45:31;11.52;;;3.20;;
31537;SDS011;18147;51.952;6.146;2022-08-03T12:47:59;20.83;;;2.92;;
31537;SDS011;18147;51.952;6.146;2022-08-03T12:52:53;16.98;;;3.38;;
31537;SDS011;18147;51.952;6.146;2022-08-03T12:55:20;15.52;;;2.75;;
31537;SDS011;18147;51.952;6.146;2022-08-03T12:57:46;9.85;;;2.50;;
31537;SDS011;18147;51.952;6.146;2022-08-03T13:00:13;13.10;;;2.90;;
31537;SDS011;18147;51.952;6.146;2022-08-03T13:02:40;11.10;;;2.42;;
31537;SDS011;18147;51.952;6.146;2022-08-03T13:05:09;14.40;;;3.55;;
31537;SDS011;18147;51.952;6.146;2022-08-03T13:07:43;11.18;;;2.80;;
31537;SDS011;18147;51.952;6.146;2022-08-03T13:10:10;10.75;;;2.38;;
31537;SDS011;18147;51.952;6.146;2022-08-03T13:12:46;14.30;;;2.50;;
31537;SDS011;18147;51.952;6.146;2022-08-03T13:15:13;8.50;;;2.42;;
31537;SDS011;18147;51.952;6.146;2022-08-03T13:17:39;16.35;;;3.10;;
31537;SDS011;18147;51.952;6.146;2022-08-03T13:20:07;8.15;;;1.85;;
31537;SDS011;18147;51.952;6.146;2022-08-03T13:22:33;12.57;;;2.30;;
31537;SDS011;18147;51.952;6.146;2022-08-03T13:24:58;11.38;;;2.35;;
31537;SDS011;18147;51.952;6.146;2022-08-03T13:27:26;11.85;;;2.60;;
31537;SDS011;18147;51.952;6.146;2022-08-03T13:29:52;11.52;;;2.83;;
31537;SDS011;18147;51.952;6.146;2022-08-03T13:32:18;6.85;;;1.98;;
31537;SDS011;18147;51.952;6.146;2022-08-03T13:34:44;7.70;;;1.92;;
31537;SDS011;18147;51.952;6.146;2022-08-03T13:37:10;10.43;;;2.45;;
31537;SDS011;18147;51.952;6.146;2022-08-03T13:39:39;11.13;;;1.90;;
31537;SDS011;18147;51.952;6.146;2022-08-03T13:42:05;9.77;;;1.48;;
31537;SDS011;18147;51.952;6.146;2022-08-03T13:44:31;6.43;;;1.33;;
31537;SDS011;18147;51.952;6.146;2022-08-03T13:46:57;6.97;;;1.77;;
31537;SDS011;18147;51.952;6.146;2022-08-03T13:49:24;13.32;;;2.25;;
31537;SDS011;18147;51.952;6.146;2022-08-03T13:51:53;9.95;;;1.63;;
31537;SDS011;18147;51.952;6.146;2022-08-03T13:54:19;9.52;;;1.77;;
31537;SDS011;18147;51.952;6.146;2022-08-03T13:56:45;10.73;;;2.15;;
31537;SDS011;18147;51.952;6.146;2022-08-03T13:59:22;6.38;;;1.48;;
31537;SDS011;18147;51.952;6.146;2022-08-03T14:01:49;10.77;;;1.52;;
31537;SDS011;18147;51.952;6.146;2022-08-03T14:04:16;11.82;;;1.75;;
31537;SDS011;18147;51.952;6.146;2022-08-03T14:06:42;5.70;;;1.42;;
31537;SDS011;18147;51.952;6.146;2022-08-03T14:09:11;6.38;;;1.85;;
31537;SDS011;18147;51.952;6.146;2022-08-03T14:11:38;8.07;;;2.17;;
31537;SDS011;18147;51.952;6.146;2022-08-03T14:14:06;10.88;;;2.05;;
31537;SDS011;18147;51.952;6.146;2022-08-03T14:16:32;8.77;;;2.53;;
31537;SDS011;18147;51.952;6.146;2022-08-03T14:18:57;5.32;;;1.65;;
31537;SDS011;18147;51.952;6.146;2022-08-03T14:21:22;3.60;;;1.80;;
31537;SDS011;18147;51.952;6.146;2022-08-03T14:23:48;4.78;;;1.42;;
31537;SDS011;18147;51.952;6.146;2022-08-03T14:26:14;11.73;;;2.45;;
31537;SDS011;18147;51.952;6.146;2022-08-03T14:28:39;6.18;;;1.33;;
31537;SDS011;18147;51.952;6.146;2022-08-03T14:31:05;3.83;;;1.90;;
31537;SDS011;18147;51.952;6.146;2022-08-03T14:33:31;5.45;;;1.40;;
31537;SDS011;18147;51.952;6.146;2022-08-03T14:35:56;196.43;;;20.55;;
31537;SDS011;18147;51.952;6.146;2022-08-03T14:38:22;22.38;;;2.90;;
31537;SDS011;18147;51.952;6.146;2022-08-03T14:40:48;7.40;;;1.98;;
31537;SDS011;18147;51.952;6.146;2022-08-03T14:43:14;13.23;;;1.75;;
31537;SDS011;18147;51.952;6.146;2022-08-03T14:45:41;5.05;;;1.73;;
31537;SDS011;18147;51.952;6.146;2022-08-03T14:48:07;7.20;;;2.00;;
31537;SDS011;18147;51.952;6.146;2022-08-03T14:50:32;8.50;;;2.58;;
31537;SDS011;18147;51.952;6.146;2022-08-03T14:52:58;10.23;;;1.70;;
31537;SDS011;18147;51.952;6.146;2022-08-03T14:55:23;7.85;;;2.45;;
31537;SDS011;18147;51.952;6.146;2022-08-03T14:57:49;4.50;;;1.50;;
31537;SDS011;18147;51.952;6.146;2022-08-03T15:00:14;5.07;;;1.65;;
31537;SDS011;18147;51.952;6.146;2022-08-03T15:02:39;7.68;;;1.85;;
31537;SDS011;18147;51.952;6.146;2022-08-03T15:05:05;5.05;;;1.65;;
31537;SDS011;18147;51.952;6.146;2022-08-03T15:07:31;5.30;;;1.80;;
31537;SDS011;18147;51.952;6.146;2022-08-03T15:09:56;1.45;;;1.23;;
31537;SDS011;18147;51.952;6.146;2022-08-03T15:12:23;6.15;;;1.80;;
31537;SDS011;18147;51.952;6.146;2022-08-03T15:14:51;3.65;;;1.33;;
31537;SDS011;18147;51.952;6.146;2022-08-03T15:17:17;5.85;;;1.90;;
31537;SDS011;18147;51.952;6.146;2022-08-03T15:19:42;5.18;;;1.60;;
31537;SDS011;18147;51.952;6.146;2022-08-03T15:22:07;4.10;;;1.60;;
31537;SDS011;18147;51.952;6.146;2022-08-03T15:24:33;5.45;;;1.73;;
31537;SDS011;18147;51.952;6.146;2022-08-03T15:26:58;2.83;;;1.20;;
31537;SDS011;18147;51.952;6.146;2022-08-03T15:29:24;7.43;;;1.80;;